sensor_id;sensor_type;location;lat;lon;timestamp;pressure;altitude;pressure_sealevel;temperature;humidity
50394;BME280;36308;46.312;25.288;2023-02-14T00:01:09;97543.41;;;0.14;65.96
50394;BME280;36308;46.312;25.288;2023-02-14T00:03:34;97535.94;;;0.10;65.89
50394;BME280;36308;46.312;25.288;2023-02-14T00:06:12;97535.94;;;0.10;66.11
50394;BME280;36308;46.312;25.288;2023-02-14T00:08:37;97536.28;;;0.07;65.75
50394;BME280;36308;46.312;25.288;2023-02-14T00:11:05;97523.19;;;0.05;66.46
50394;BME280;36308;46.312;25.288;2023-02-14T00:13:32;97531.97;;;0.06;66.13
50394;BME280;36308;46.312;25.288;2023-02-14T00:15:58;97524.84;;;0.06;66.57
50394;BME280;36308;46.312;25.288;2023-02-14T00:18:23;97526.66;;;0.06;66.16
50394;BME280;36308;46.312;25.288;2023-02-14T00:21:09;97521.91;;;0.09;66.34
50394;BME280;36308;46.312;25.288;2023-02-14T00:23:34;97486.28;;;-0.05;66.65
50394;BME280;36308;46.312;25.288;2023-02-14T00:26:00;97498.94;;;0.10;66.96
50394;BME280;36308;46.312;25.288;2023-02-14T00:28:25;97499.75;;;0.10;66.76
50394;BME280;36308;46.312;25.288;2023-02-14T00:30:51;97495.00;;;0.14;66.95
50394;BME280;36308;46.312;25.288;2023-02-14T00:33:16;97492.19;;;0.15;66.64
50394;BME280;36308;46.312;25.288;2023-02-14T00:35:41;97496.00;;;0.13;66.79
50394;BME280;36308;46.312;25.288;2023-02-14T00:38:07;97498.31;;;0.16;66.38
50394;BME280;36308;46.312;25.288;2023-02-14T00:40:32;97492.06;;;0.17;66.22
50394;BME280;36308;46.312;25.288;2023-02-14T00:42:58;97503.31;;;0.19;67.07
50394;BME280;36308;46.312;25.288;2023-02-14T00:45:23;97497.16;;;0.18;66.71
50394;BME280;36308;46.312;25.288;2023-02-14T00:47:49;97481.13;;;0.20;67.11
50394;BME280;36308;46.312;25.288;2023-02-14T00:50:14;97487.09;;;0.22;66.54
50394;BME280;36308;46.312;25.288;2023-02-14T00:52:40;97479.31;;;0.20;66.57
50394;BME280;36308;46.312;25.288;2023-02-14T00:55:05;97483.50;;;0.23;66.94
50394;BME280;36308;46.312;25.288;2023-02-14T00:57:31;97481.00;;;0.22;66.62
50394;BME280;36308;46.312;25.288;2023-02-14T00:59:56;97466.94;;;0.21;66.67
50394;BME280;36308;46.312;25.288;2023-02-14T01:02:22;97463.97;;;0.24;66.46
50394;BME280;36308;46.312;25.288;2023-02-14T01:04:47;97450.06;;;0.22;66.49
50394;BME280;36308;46.312;25.288;2023-02-14T01:07:13;97436.69;;;0.24;66.86
50394;BME280;36308;46.312;25.288;2023-02-14T01:09:38;97434.19;;;0.22;66.37
50394;BME280;36308;46.312;25.288;2023-02-14T01:12:04;97422.28;;;0.18;66.95
50394;BME280;36308;46.312;25.288;2023-02-14T01:14:29;97405.69;;;0.08;66.86
50394;BME280;36308;46.312;25.288;2023-02-14T01:16:55;97425.44;;;0.22;66.84
50394;BME280;36308;46.312;25.288;2023-02-14T01:19:20;97427.94;;;0.23;66.34
50394;BME280;36308;46.312;25.288;2023-02-14T01:21:46;97433.91;;;0.25;66.64
50394;BME280;36308;46.312;25.288;2023-02-14T01:24:11;97428.63;;;0.25;66.77
50394;BME280;36308;46.312;25.288;2023-02-14T01:26:37;97415.53;;;0.24;66.58
50394;BME280;36308;46.312;25.288;2023-02-14T01:29:04;97411.75;;;0.26;66.94
50394;BME280;36308;46.312;25.288;2023-02-14T01:31:31;97405.47;;;0.27;66.66
50394;BME280;36308;46.312;25.288;2023-02-14T01:33:58;97416.06;;;0.27;66.93
50394;BME280;36308;46.312;25.288;2023-02-14T01:36:30;97395.72;;;0.28;67.08
50394;BME280;36308;46.312;25.288;2023-02-14T01:39:02;97383.47;;;0.27;66.94
50394;BME280;36308;46.312;25.288;2023-02-14T01:41:31;97389.91;;;0.24;67.04
50394;BME280;36308;46.312;25.288;2023-02-14T01:46:44;97357.97;;;0.17;67.06
50394;BME280;36308;46.312;25.288;2023-02-14T01:51:55;97379.03;;;0.27;66.77
50394;BME280;36308;46.312;25.288;2023-02-14T01:54:24;97382.78;;;0.25;67.20
50394;BME280;36308;46.312;25.288;2023-02-14T01:56:54;97395.19;;;0.24;67.13
50394;BME280;36308;46.312;25.288;2023-02-14T01:59:24;97395.72;;;0.28;66.55
50394;BME280;36308;46.312;25.288;2023-02-14T02:01:51;97370.09;;;0.28;67.06
50394;BME280;36308;46.312;25.288;2023-02-14T02:04:27;97364.78;;;0.28;67.07
50394;BME280;36308;46.312;25.288;2023-02-14T02:06:58;97365.13;;;0.25;67.01
50394;BME280;36308;46.312;25.288;2023-02-14T02:09:43;97362.00;;;0.30;66.89
50394;BME280;36308;46.312;25.288;2023-02-14T02:12:11;97357.53;;;0.30;66.71
50394;BME280;36308;46.312;25.288;2023-02-14T02:14:37;97348.91;;;0.28;66.99
50394;BME280;36308;46.312;25.288;2023-02-14T02:23:16;97348.63;;;0.31;67.18
50394;BME280;36308;46.312;25.288;2023-02-14T02:43:21;97339.00;;;0.30;66.45
50394;BME280;36308;46.312;25.288;2023-02-14T02:46:01;97340.84;;;0.30;66.92
50394;BME280;36308;46.312;25.288;2023-02-14T02:51:29;97338.19;;;0.30;66.93
50394;BME280;36308;46.312;25.288;2023-02-14T02:54:21;97337.38;;;0.29;66.81
50394;BME280;36308;46.312;25.288;2023-02-14T02:56:56;97345.13;;;0.31;67.02
50394;BME280;36308;46.312;25.288;2023-02-14T02:59:33;97338.03;;;0.31;67.30
50394;BME280;36308;46.312;25.288;2023-02-14T03:02:16;97332.38;;;0.26;66.53
50394;BME280;36308;46.312;25.288;2023-02-14T03:04:52;97340.69;;;0.31;67.03
50394;BME280;36308;46.312;25.288;2023-02-14T03:07:32;97340.50;;;0.33;67.15
50394;BME280;36308;46.312;25.288;2023-02-14T03:10:04;97334.38;;;0.32;67.08
50394;BME280;36308;46.312;25.288;2023-02-14T03:17:40;97329.09;;;0.32;66.44
50394;BME280;36308;46.312;25.288;2023-02-14T03:26:25;97332.75;;;0.31;67.09
50394;BME280;36308;46.312;25.288;2023-02-14T03:29:01;97329.91;;;0.33;66.66
50394;BME280;36308;46.312;25.288;2023-02-14T03:34:21;97331.91;;;0.31;66.78
50394;BME280;36308;46.312;25.288;2023-02-14T03:36:58;97338.03;;;0.31;66.69
50394;BME280;36308;46.312;25.288;2023-02-14T03:39:26;97333.56;;;0.32;67.22
50394;BME280;36308;46.312;25.288;2023-02-14T03:42:16;97335.41;;;0.31;67.25
50394;BME280;36308;46.312;25.288;2023-02-14T03:44:44;97331.75;;;0.32;66.97
50394;BME280;36308;46.312;25.288;2023-02-14T03:47:13;97328.28;;;0.32;67.40
50394;BME280;36308;46.312;25.288;2023-02-14T03:49:52;97326.59;;;0.31;67.46
50394;BME280;36308;46.312;25.288;2023-02-14T03:52:20;97315.19;;;0.30;66.95
50394;BME280;36308;46.312;25.288;2023-02-14T03:54:47;97316.84;;;0.23;67.61
50394;BME280;36308;46.312;25.288;2023-02-14T03:57:48;97332.75;;;0.31;67.44
50394;BME280;36308;46.312;25.288;2023-02-14T04:00:17;97336.88;;;0.34;67.42
50394;BME280;36308;46.312;25.288;2023-02-14T04:02:54;97325.47;;;0.33;67.08
50394;BME280;36308;46.312;25.288;2023-02-14T04:05:25;97323.81;;;0.32;67.12
50394;BME280;36308;46.312;25.288;2023-02-14T04:07:54;97318.50;;;0.32;67.19
50394;BME280;36308;46.312;25.288;2023-02-14T04:10:21;97318.50;;;0.32;67.13
50394;BME280;36308;46.312;25.288;2023-02-14T04:12:47;97319.53;;;0.31;66.98
50394;BME280;36308;46.312;25.288;2023-02-14T04:15:13;97305.78;;;0.28;67.24
50394;BME280;36308;46.312;25.288;2023-02-14T04:17:39;97318.66;;;0.31;67.56
50394;BME280;36308;46.312;25.288;2023-02-14T04:20:23;97313.88;;;0.26;67.71
50394;BME280;36308;46.312;25.288;2023-02-14T04:22:48;97315.53;;;0.27;67.16
50394;BME280;36308;46.312;25.288;2023-02-14T04:25:16;97326.44;;;0.32;67.51
50394;BME280;36308;46.312;25.288;2023-02-14T04:27:42;97301.94;;;0.22;67.31
50394;BME280;36308;46.312;25.288;2023-02-14T04:30:08;97311.06;;;0.28;67.26
50394;BME280;36308;46.312;25.288;2023-02-14T04:32:34;97315.19;;;0.30;67.31
50394;BME280;36308;46.312;25.288;2023-02-14T04:34:59;97314.91;;;0.33;67.36
50394;BME280;36308;46.312;25.288;2023-02-14T04:37:25;97312.25;;;0.33;67.34
50394;BME280;36308;46.312;25.288;2023-02-14T04:39:50;97320.19;;;0.33;67.69
50394;BME280;36308;46.312;25.288;2023-02-14T04:42:16;97313.88;;;0.34;67.23
50394;BME280;36308;46.312;25.288;2023-02-14T04:44:42;97317.53;;;0.33;67.72
50394;BME280;36308;46.312;25.288;2023-02-14T04:47:07;97311.25;;;0.34;67.15
50394;BME280;36308;46.312;25.288;2023-02-14T04:49:33;97313.88;;;0.34;67.30
50394;BME280;36308;46.312;25.288;2023-02-14T04:51:59;97286.75;;;0.24;67.31
50394;BME280;36308;46.312;25.288;2023-02-14T04:54:24;97305.81;;;0.36;67.40
50394;BME280;36308;46.312;25.288;2023-02-14T04:56:50;97313.75;;;0.36;68.04
50394;BME280;36308;46.312;25.288;2023-02-14T04:59:16;97313.41;;;0.39;67.18
50394;BME280;36308;46.312;25.288;2023-02-14T05:01:41;97326.47;;;0.40;68.04
50394;BME280;36308;46.312;25.288;2023-02-14T05:04:07;97324.66;;;0.41;67.93
50394;BME280;36308;46.312;25.288;2023-02-14T05:06:33;97328.81;;;0.44;67.64
50394;BME280;36308;46.312;25.288;2023-02-14T05:08:59;97326.16;;;0.44;67.32
50394;BME280;36308;46.312;25.288;2023-02-14T05:11:26;97312.44;;;0.40;67.68
50394;BME280;36308;46.312;25.288;2023-02-14T05:13:52;97322.84;;;0.42;67.95
50394;BME280;36308;46.312;25.288;2023-02-14T05:16:18;97326.16;;;0.44;67.26
50394;BME280;36308;46.312;25.288;2023-02-14T05:18:43;97323.53;;;0.44;67.45
50394;BME280;36308;46.312;25.288;2023-02-14T05:21:09;97330.44;;;0.45;67.46
50394;BME280;36308;46.312;25.288;2023-02-14T05:23:35;97333.09;;;0.45;67.28
50394;BME280;36308;46.312;25.288;2023-02-14T05:26:00;97334.94;;;0.44;67.76
50394;BME280;36308;46.312;25.288;2023-02-14T05:28:26;97333.44;;;0.42;67.35
50394;BME280;36308;46.312;25.288;2023-02-14T05:30:51;97340.22;;;0.44;67.45
50394;BME280;36308;46.312;25.288;2023-02-14T05:33:17;97331.94;;;0.47;67.55
50394;BME280;36308;46.312;25.288;2023-02-14T05:35:43;97335.41;;;0.48;67.55
50394;BME280;36308;46.312;25.288;2023-02-14T05:38:08;97334.75;;;0.46;67.34
50394;BME280;36308;46.312;25.288;2023-02-14T05:40:34;97329.44;;;0.46;67.79
50394;BME280;36308;46.312;25.288;2023-02-14T05:42:59;97338.91;;;0.48;67.71
50394;BME280;36308;46.312;25.288;2023-02-14T05:45:25;97339.72;;;0.49;67.38
50394;BME280;36308;46.312;25.288;2023-02-14T05:47:50;97329.63;;;0.44;67.44
50394;BME280;36308;46.312;25.288;2023-02-14T05:50:17;97329.13;;;0.49;67.38
50394;BME280;36308;46.312;25.288;2023-02-14T05:52:43;97331.78;;;0.49;67.44
50394;BME280;36308;46.312;25.288;2023-02-14T05:55:09;97337.75;;;0.51;67.55
50394;BME280;36308;46.312;25.288;2023-02-14T05:57:34;97310.59;;;0.40;67.84
50394;BME280;36308;46.312;25.288;2023-02-14T06:00:00;97324.66;;;0.49;67.65
50394;BME280;36308;46.312;25.288;2023-02-14T06:02:26;97328.47;;;0.47;67.90
50394;BME280;36308;46.312;25.288;2023-02-14T06:04:51;97329.13;;;0.49;67.79
50394;BME280;36308;46.312;25.288;2023-02-14T06:07:35;97330.78;;;0.50;67.82
50394;BME280;36308;46.312;25.288;2023-02-14T06:10:01;97327.47;;;0.48;67.36
50394;BME280;36308;46.312;25.288;2023-02-14T06:12:26;97331.63;;;0.50;67.50
50394;BME280;36308;46.312;25.288;2023-02-14T06:14:52;97323.84;;;0.49;68.13
50394;BME280;36308;46.312;25.288;2023-02-14T06:17:17;97341.38;;;0.50;67.68
50394;BME280;36308;46.312;25.288;2023-02-14T06:19:43;97322.34;;;0.38;67.32
50394;BME280;36308;46.312;25.288;2023-02-14T06:22:08;97343.03;;;0.51;67.28
50394;BME280;36308;46.312;25.288;2023-02-14T06:24:34;97342.22;;;0.50;67.77
50394;BME280;36308;46.312;25.288;2023-02-14T06:27:00;97331.94;;;0.47;67.02
50394;BME280;36308;46.312;25.288;2023-02-14T06:29:26;97323.53;;;0.44;67.37
50394;BME280;36308;46.312;25.288;2023-02-14T06:31:51;97339.38;;;0.52;67.82
50394;BME280;36308;46.312;25.288;2023-02-14T06:34:17;97337.41;;;0.54;67.36
50394;BME280;36308;46.312;25.288;2023-02-14T06:36:43;97330.47;;;0.53;67.41
50394;BME280;36308;46.312;25.288;2023-02-14T06:39:08;97330.31;;;0.54;67.32
50394;BME280;36308;46.312;25.288;2023-02-14T06:41:34;97338.06;;;0.56;67.29
50394;BME280;36308;46.312;25.288;2023-02-14T06:44:00;97333.78;;;0.55;67.71
50394;BME280;36308;46.312;25.288;2023-02-14T06:46:25;97335.75;;;0.53;67.39
50394;BME280;36308;46.312;25.288;2023-02-14T06:48:51;97343.22;;;0.57;67.61
50394;BME280;36308;46.312;25.288;2023-02-14T06:51:16;97335.13;;;0.59;67.14
50394;BME280;36308;46.312;25.288;2023-02-14T06:53:42;97331.66;;;0.58;67.40
50394;BME280;36308;46.312;25.288;2023-02-14T06:56:07;97341.22;;;0.59;67.34
50394;BME280;36308;46.312;25.288;2023-02-14T06:58:33;97335.13;;;0.59;67.51
50394;BME280;36308;46.312;25.288;2023-02-14T07:00:59;97324.53;;;0.59;67.42
50394;BME280;36308;46.312;25.288;2023-02-14T07:03:25;97325.19;;;0.61;67.19
50394;BME280;36308;46.312;25.288;2023-02-14T07:05:52;97328.81;;;0.60;67.58
50394;BME280;36308;46.312;25.288;2023-02-14T07:08:18;97327.84;;;0.61;67.40
50394;BME280;36308;46.312;25.288;2023-02-14T07:10:45;97318.22;;;0.60;66.98
50394;BME280;36308;46.312;25.288;2023-02-14T07:13:10;97325.88;;;0.63;67.55
50394;BME280;36308;46.312;25.288;2023-02-14T07:15:36;97328.50;;;0.63;67.06
50394;BME280;36308;46.312;25.288;2023-02-14T07:18:01;97323.88;;;0.65;67.77
50394;BME280;36308;46.312;25.288;2023-02-14T07:20:27;97325.53;;;0.66;67.03
50394;BME280;36308;46.312;25.288;2023-02-14T07:22:52;97315.94;;;0.57;67.26
50394;BME280;36308;46.312;25.288;2023-02-14T07:25:19;97338.59;;;0.68;67.29
50394;BME280;36308;46.312;25.288;2023-02-14T07:27:45;97337.78;;;0.67;67.60
50394;BME280;36308;46.312;25.288;2023-02-14T07:30:11;97345.38;;;0.70;67.36
50394;BME280;36308;46.312;25.288;2023-02-14T07:32:38;97346.03;;;0.72;67.82
50394;BME280;36308;46.312;25.288;2023-02-14T07:35:04;97342.91;;;0.69;67.47
50394;BME280;36308;46.312;25.288;2023-02-14T07:37:33;97335.47;;;0.72;67.40
50394;BME280;36308;46.312;25.288;2023-02-14T07:39:59;97344.06;;;0.74;67.78
50394;BME280;36308;46.312;25.288;2023-02-14T07:42:24;97331.84;;;0.73;68.03
50394;BME280;36308;46.312;25.288;2023-02-14T07:44:50;97336.78;;;0.76;67.24
50394;BME280;36308;46.312;25.288;2023-02-14T07:47:15;97333.97;;;0.78;67.07
50394;BME280;36308;46.312;25.288;2023-02-14T07:49:41;97328.53;;;0.79;67.46
50394;BME280;36308;46.312;25.288;2023-02-14T07:52:07;97338.78;;;0.83;67.41
50394;BME280;36308;46.312;25.288;2023-02-14T07:54:32;97328.19;;;0.74;67.14
50394;BME280;36308;46.312;25.288;2023-02-14T07:56:58;97341.44;;;0.83;67.44
50394;BME280;36308;46.312;25.288;2023-02-14T07:59:23;97318.44;;;0.75;67.13
50394;BME280;36308;46.312;25.288;2023-02-14T08:01:49;97342.75;;;0.87;67.02
50394;BME280;36308;46.312;25.288;2023-02-14T08:04:14;97343.25;;;0.90;67.13
50394;BME280;36308;46.312;25.288;2023-02-14T08:06:41;97327.38;;;0.90;67.66
50394;BME280;36308;46.312;25.288;2023-02-14T08:09:07;97331.50;;;0.93;67.04
50394;BME280;36308;46.312;25.288;2023-02-14T08:11:35;97331.00;;;0.89;67.27
50394;BME280;36308;46.312;25.288;2023-02-14T08:14:19;97325.53;;;0.83;67.55
50394;BME280;36308;46.312;25.288;2023-02-14T08:16:44;97338.63;;;0.92;67.66
50394;BME280;36308;46.312;25.288;2023-02-14T08:19:10;97339.59;;;0.91;67.50
50394;BME280;36308;46.312;25.288;2023-02-14T08:21:35;97336.81;;;0.93;67.18
50394;BME280;36308;46.312;25.288;2023-02-14T08:24:01;97336.81;;;0.93;67.63
50394;BME280;36308;46.312;25.288;2023-02-14T08:26:26;97326.22;;;0.93;66.96
50394;BME280;36308;46.312;25.288;2023-02-14T08:28:52;97329.69;;;0.93;66.99
50394;BME280;36308;46.312;25.288;2023-02-14T08:31:23;97343.13;;;1.00;67.00
50394;BME280;36308;46.312;25.288;2023-02-14T08:33:50;97332.84;;;0.97;67.08
50394;BME280;36308;46.312;25.288;2023-02-14T08:36:16;97344.44;;;1.04;67.59
50394;BME280;36308;46.312;25.288;2023-02-14T08:38:42;97346.09;;;1.05;67.54
50394;BME280;36308;46.312;25.288;2023-02-14T08:41:10;97346.91;;;1.06;67.33
50394;BME280;36308;46.312;25.288;2023-02-14T08:43:35;97347.41;;;1.09;67.83
50394;BME280;36308;46.312;25.288;2023-02-14T08:46:01;97344.75;;;1.09;67.72
50394;BME280;36308;46.312;25.288;2023-02-14T08:48:27;97358.34;;;1.14;66.91
50394;BME280;36308;46.312;25.288;2023-02-14T08:50:52;97345.91;;;1.15;67.88
50394;BME280;36308;46.312;25.288;2023-02-14T08:53:18;97350.06;;;1.17;67.04
50394;BME280;36308;46.312;25.288;2023-02-14T08:55:43;97350.88;;;1.18;66.85
50394;BME280;36308;46.312;25.288;2023-02-14T08:58:09;97320.25;;;0.99;67.56
50394;BME280;36308;46.312;25.288;2023-02-14T09:00:34;97359.16;;;1.23;67.46
50394;BME280;36308;46.312;25.288;2023-02-14T09:03:00;97369.41;;;1.26;66.94
50394;BME280;36308;46.312;25.288;2023-02-14T09:05:26;97372.91;;;1.27;67.42
50394;BME280;36308;46.312;25.288;2023-02-14T09:07:52;97376.03;;;1.30;67.49
50394;BME280;36308;46.312;25.288;2023-02-14T09:10:20;97361.97;;;1.21;67.43
50394;BME280;36308;46.312;25.288;2023-02-14T09:12:45;97380.03;;;1.34;67.69
50394;BME280;36308;46.312;25.288;2023-02-14T09:15:11;97380.69;;;1.36;67.03
50394;BME280;36308;46.312;25.288;2023-02-14T09:17:38;97388.47;;;1.38;67.15
50394;BME280;36308;46.312;25.288;2023-02-14T09:20:10;97382.81;;;1.41;67.11
50394;BME280;36308;46.312;25.288;2023-02-14T09:22:36;97388.31;;;1.39;67.28
50394;BME280;36308;46.312;25.288;2023-02-14T09:25:02;97380.84;;;1.43;67.39
50394;BME280;36308;46.312;25.288;2023-02-14T09:27:29;97381.34;;;1.47;66.99
50394;BME280;36308;46.312;25.288;2023-02-14T09:29:54;97387.47;;;1.47;67.26
50394;BME280;36308;46.312;25.288;2023-02-14T09:32:20;97390.78;;;1.49;66.27
50394;BME280;36308;46.312;25.288;2023-02-14T09:34:45;97393.25;;;1.51;66.11
50394;BME280;36308;46.312;25.288;2023-02-14T09:37:11;97376.53;;;1.50;66.68
50394;BME280;36308;46.312;25.288;2023-02-14T09:39:37;97380.16;;;1.49;66.88
50394;BME280;36308;46.312;25.288;2023-02-14T09:45:05;97358.13;;;1.57;67.39
50394;BME280;36308;46.312;25.288;2023-02-14T09:50:25;97348.31;;;1.74;67.41
50394;BME280;36308;46.312;25.288;2023-02-14T09:53:01;97333.44;;;1.73;67.42
50394;BME280;36308;46.312;25.288;2023-02-14T09:55:35;97344.16;;;1.88;66.87
50394;BME280;36308;46.312;25.288;2023-02-14T09:58:19;97342.97;;;1.90;66.13
50394;BME280;36308;46.312;25.288;2023-02-14T10:00:56;97330.06;;;1.87;66.85
50394;BME280;36308;46.312;25.288;2023-02-14T10:03:37;97336.69;;;1.91;66.30
50394;BME280;36308;46.312;25.288;2023-02-14T10:11:51;97340.28;;;2.07;66.49
50394;BME280;36308;46.312;25.288;2023-02-14T10:14:20;97330.16;;;2.10;66.12
50394;BME280;36308;46.312;25.288;2023-02-14T10:21:50;97327.22;;;2.28;65.71
50394;BME280;36308;46.312;25.288;2023-02-14T10:26:49;97318.91;;;2.39;65.74
50394;BME280;36308;46.312;25.288;2023-02-14T10:29:17;97305.25;;;2.42;65.25
50394;BME280;36308;46.312;25.288;2023-02-14T10:31:45;97305.22;;;2.51;65.52
50394;BME280;36308;46.312;25.288;2023-02-14T10:48:12;97309.81;;;2.57;64.72
50394;BME280;36308;46.312;25.288;2023-02-14T10:54:00;97318.44;;;2.59;64.13
50394;BME280;36308;46.312;25.288;2023-02-14T10:59:03;97298.59;;;2.47;63.93
50394;BME280;36308;46.312;25.288;2023-02-14T11:01:32;97319.94;;;2.61;64.30
50394;BME280;36308;46.312;25.288;2023-02-14T11:04:00;97314.63;;;2.61;63.81
50394;BME280;36308;46.312;25.288;2023-02-14T11:06:31;97296.91;;;2.54;64.15
50394;BME280;36308;46.312;25.288;2023-02-14T11:08:57;97306.53;;;2.55;64.27
50394;BME280;36308;46.312;25.288;2023-02-14T11:11:29;97314.91;;;2.67;63.86
50394;BME280;36308;46.312;25.288;2023-02-14T11:13:56;97314.09;;;2.66;63.50
50394;BME280;36308;46.312;25.288;2023-02-14T11:16:33;97316.09;;;2.64;63.43
50394;BME280;36308;46.312;25.288;2023-02-14T11:19:15;97319.75;;;2.63;64.22
50394;BME280;36308;46.312;25.288;2023-02-14T11:21:45;97318.09;;;2.62;63.84
50394;BME280;36308;46.312;25.288;2023-02-14T11:26:54;97312.97;;;2.60;63.86
50394;BME280;36308;46.312;25.288;2023-02-14T11:29:30;97279.03;;;2.48;64.24
50394;BME280;36308;46.312;25.288;2023-02-14T11:32:06;97279.53;;;2.51;64.17
50394;BME280;36308;46.312;25.288;2023-02-14T11:34:59;97290.38;;;2.65;64.06
50394;BME280;36308;46.312;25.288;2023-02-14T11:37:29;97290.84;;;2.68;63.92
50394;BME280;36308;46.312;25.288;2023-02-14T11:39:57;97273.31;;;2.59;64.27
50394;BME280;36308;46.312;25.288;2023-02-14T11:42:44;97272.59;;;2.65;63.84
50394;BME280;36308;46.312;25.288;2023-02-14T11:45:31;97289.78;;;2.77;63.79
50394;BME280;36308;46.312;25.288;2023-02-14T11:48:17;97293.09;;;2.79;63.65
50394;BME280;36308;46.312;25.288;2023-02-14T11:50:57;97288.59;;;2.80;63.45
50394;BME280;36308;46.312;25.288;2023-02-14T11:53:28;97290.75;;;2.85;64.01
50394;BME280;36308;46.312;25.288;2023-02-14T11:55:55;97291.19;;;2.88;63.70
50394;BME280;36308;46.312;25.288;2023-02-14T11:58:34;97289.38;;;2.89;63.59
50394;BME280;36308;46.312;25.288;2023-02-14T12:01:01;97284.72;;;2.91;63.58
50394;BME280;36308;46.312;25.288;2023-02-14T12:03:35;97281.03;;;2.92;63.13
50394;BME280;36308;46.312;25.288;2023-02-14T12:06:02;97284.34;;;2.94;63.43
50394;BME280;36308;46.312;25.288;2023-02-14T12:08:30;97284.72;;;2.91;63.35
50394;BME280;36308;46.312;25.288;2023-02-14T12:11:20;97287.16;;;2.92;63.64
50394;BME280;36308;46.312;25.288;2023-02-14T12:13:54;97283.03;;;2.90;63.45
50394;BME280;36308;46.312;25.288;2023-02-14T12:16:45;97279.75;;;2.88;63.49
50394;BME280;36308;46.312;25.288;2023-02-14T12:19:23;97281.75;;;2.86;63.13
50394;BME280;36308;46.312;25.288;2023-02-14T12:21:58;97283.75;;;2.83;62.73
50394;BME280;36308;46.312;25.288;2023-02-14T12:24:35;97278.81;;;2.80;63.47
50394;BME280;36308;46.312;25.288;2023-02-14T12:27:18;97271.84;;;2.79;62.71
50394;BME280;36308;46.312;25.288;2023-02-14T12:30:32;97275.69;;;2.77;63.23
50394;BME280;36308;46.312;25.288;2023-02-14T12:32:33;97249.91;;;2.62;63.04
50394;BME280;36308;46.312;25.288;2023-02-14T12:35:05;97273.56;;;2.72;63.54
50394;BME280;36308;46.312;25.288;2023-02-14T12:43:02;97257.97;;;2.69;63.00
50394;BME280;36308;46.312;25.288;2023-02-14T12:51:20;97249.72;;;2.64;63.88
50394;BME280;36308;46.312;25.288;2023-02-14T13:21:22;97265.94;;;2.69;64.14
50394;BME280;36308;46.312;25.288;2023-02-14T13:23:50;97253.69;;;2.68;63.54
50394;BME280;36308;46.312;25.288;2023-02-14T13:26:23;97251.19;;;2.67;63.39
50394;BME280;36308;46.312;25.288;2023-02-14T13:29:09;97252.00;;;2.67;63.68
50394;BME280;36308;46.312;25.288;2023-02-14T13:31:36;97264.31;;;2.68;63.23
50394;BME280;36308;46.312;25.288;2023-02-14T13:34:11;97253.84;;;2.67;63.29
50394;BME280;36308;46.312;25.288;2023-02-14T13:36:38;97239.50;;;2.53;63.16
50394;BME280;36308;46.312;25.288;2023-02-14T13:39:05;97254.38;;;2.62;63.19
50394;BME280;36308;46.312;25.288;2023-02-14T13:41:32;97254.72;;;2.59;63.76
50394;BME280;36308;46.312;25.288;2023-02-14T13:43:59;97256.56;;;2.58;63.59
50394;BME280;36308;46.312;25.288;2023-02-14T13:51:48;97255.78;;;2.50;63.29
50394;BME280;36308;46.312;25.288;2023-02-14T13:56:58;97255.44;;;2.53;63.88
50394;BME280;36308;46.312;25.288;2023-02-14T13:59:33;97253.78;;;2.52;63.42
50394;BME280;36308;46.312;25.288;2023-02-14T14:04:50;97236.56;;;2.48;63.59
50394;BME280;36308;46.312;25.288;2023-02-14T14:07:19;97240.84;;;2.49;63.77
50394;BME280;36308;46.312;25.288;2023-02-14T14:17:43;97220.97;;;2.45;63.37
50394;BME280;36308;46.312;25.288;2023-02-14T14:22:55;97227.94;;;2.46;64.14
50394;BME280;36308;46.312;25.288;2023-02-14T14:27:58;97224.28;;;2.47;63.80
50394;BME280;36308;46.312;25.288;2023-02-14T14:30:27;97220.97;;;2.45;64.04
50394;BME280;36308;46.312;25.288;2023-02-14T14:32:55;97227.94;;;2.46;63.33
50394;BME280;36308;46.312;25.288;2023-02-14T14:35:36;97214.84;;;2.44;63.39
50394;BME280;36308;46.312;25.288;2023-02-14T14:38:02;97219.69;;;2.40;64.15
50394;BME280;36308;46.312;25.288;2023-02-14T14:40:31;97213.22;;;2.43;63.29
50394;BME280;36308;46.312;25.288;2023-02-14T14:43:13;97221.34;;;2.41;64.05
50394;BME280;36308;46.312;25.288;2023-02-14T14:45:45;97210.72;;;2.41;63.90
50394;BME280;36308;46.312;25.288;2023-02-14T14:48:13;97215.38;;;2.39;63.31
50394;BME280;36308;46.312;25.288;2023-02-14T14:50:44;97218.38;;;2.36;64.04
50394;BME280;36308;46.312;25.288;2023-02-14T14:53:42;97216.38;;;2.38;63.49
50394;BME280;36308;46.312;25.288;2023-02-14T14:56:16;97218.84;;;2.40;63.68
50394;BME280;36308;46.312;25.288;2023-02-14T14:58:43;97220.69;;;2.39;63.58
50394;BME280;36308;46.312;25.288;2023-02-14T15:01:27;97215.38;;;2.39;64.42
50394;BME280;36308;46.312;25.288;2023-02-14T15:03:53;97216.38;;;2.38;63.93
50394;BME280;36308;46.312;25.288;2023-02-14T15:06:20;97220.69;;;2.39;63.73
50394;BME280;36308;46.312;25.288;2023-02-14T15:08:47;97215.38;;;2.39;63.52
50394;BME280;36308;46.312;25.288;2023-02-14T15:11:25;97212.72;;;2.39;63.44
50394;BME280;36308;46.312;25.288;2023-02-14T15:14:16;97201.53;;;2.29;63.53
50394;BME280;36308;46.312;25.288;2023-02-14T15:16:58;97207.97;;;2.35;64.12
50394;BME280;36308;46.312;25.288;2023-02-14T15:19:37;97220.38;;;2.34;64.10
50394;BME280;36308;46.312;25.288;2023-02-14T15:22:17;97215.06;;;2.34;63.74
50394;BME280;36308;46.312;25.288;2023-02-14T15:24:44;97215.78;;;2.28;63.75
50394;BME280;36308;46.312;25.288;2023-02-14T15:27:15;97219.94;;;2.31;63.57
50394;BME280;36308;46.312;25.288;2023-02-14T15:29:55;97213.78;;;2.30;63.81
50394;BME280;36308;46.312;25.288;2023-02-14T15:32:22;97221.28;;;2.27;63.65
50394;BME280;36308;46.312;25.288;2023-02-14T15:34:48;97212.47;;;2.26;64.08
50394;BME280;36308;46.312;25.288;2023-02-14T15:37:14;97216.63;;;2.29;63.74
50394;BME280;36308;46.312;25.288;2023-02-14T15:39:43;97214.13;;;2.27;63.71
50394;BME280;36308;46.312;25.288;2023-02-14T15:42:42;97212.13;;;2.29;64.13